Long Beach, MS (39560)

7:14 AM CST on February 08, 2016 (GMT -0600)
Eddie's Weather Station | | Change Station
CLOSE
Current Station
Personal Weather Station
Location: Long Beach, MS
Elevation: 28 ft
Nearby Weather Stations
Active Advisory: Wind Advisory

Elev 28 ft 30.36 °N, 89.16 °W | Updated 8 seconds ago

Clear
Clear
43.3 °F
Feels Like 40 °F
N
5.4
Wind Variable Wind from West
Gusts 5.4 mph

Today
High -- | Low -- °F
--% Chance of Precip.
Yesterday
High -- | Low -- °F
Precip. -- in
Pressure 30.06 in
Visibility 10.0 miles
Clouds Clear
Windchill 40 °F
Dew Point 36 °F
Humidity 74%
Rainfall 0.00 in
Snow Depth Not available.
6:43 AM 5:38 PM
Waning Crescent, 0% visible
METAR KGPT 081253Z 27007KT 10SM CLR 07/04 A3006 RMK AO2 SLP177 T00720044 $
Pressure 30.06 in
Visibility 10.0 miles
Clouds Clear
Windchill 40 °F
Dew Point 36 °F
Humidity 74%
Rainfall 0.00 in
Snow Depth Not available.
6:43 AM 5:38 PM
Waning Crescent, 0% visible
METAR KGPT 081253Z 27007KT 10SM CLR 07/04 A3006 RMK AO2 SLP177 T00720044 $

10-Day Weather Forecast

Almanac

Astronomy

Feb. 08, 2016 Rise Set
Actual Time
Civil Twilight
Nautical Twilight
Astronomical Twilight
Moon
Length of Visible Light
Length of Day
Tomorrow will be .
, % of the Moon is Illuminated

Today's Extremes

State Highs State Lows

Community

WunderPhotos

Upload Photos

1,891,434 photos uploaded!

WunderBlog® & News

Nearby

Air Quality

  Air Quality AQ Index Pollutant
Not available.

Snow Depth

Station Depth Elevation

Earthquake Activity

City Distance Mag. Time & Date
Minimum magnitude displayed is 2.5.

Coastal Water Temperatures

Place Temperature

Stations

Nearby Weather Stations

Station Location Temp. Windchill Dew Point Humidity Wind Precip. Elev Updated Type
                   

Watches & Warnings

Wind Advisory
Issued: 3:32 AM CST Feb. 8, 2016 – National Weather Service

... Wind Advisory in effect from 9 am this morning to 6 PM CST
this evening...

The National Weather Service in New Orleans has issued a Wind
Advisory... which is in effect from 9 am this morning to 6 PM CST
this evening.

* Winds... near 20 mph with frequent gusts of 30 to 40 mph.

* Duration... 6 to 10 hours.

* Impacts... windy conditions will lead to difficult driving
conditions especially along elevated roadways along with
east/west highways and interstates.

Precautionary/preparedness actions...

A Wind Advisory means that winds of 26 to 39 mph are expected.
Winds this strong can make driving difficult... especially for
high profile vehicles. Use extra caution.